createdAt,value
2019-05-12T00:00:22.129Z,5.17
2019-05-12T00:01:28.569Z,5.73
2019-05-12T00:02:33.009Z,5.57
2019-05-12T00:03:38.886Z,4.37
2019-05-12T00:04:43.462Z,5.83
2019-05-12T00:05:48.412Z,8.27
2019-05-12T00:06:53.075Z,3.70
2019-05-12T00:07:58.890Z,4.40
2019-05-12T00:09:05.684Z,7.83
2019-05-12T00:10:11.504Z,5.50
2019-05-12T00:11:17.851Z,4.43
2019-05-12T00:12:22.574Z,5.90
2019-05-12T00:13:27.978Z,4.10
2019-05-12T00:14:33.090Z,4.67
2019-05-12T00:15:38.462Z,5.50
2019-05-12T00:16:48.940Z,5.57
2019-05-12T00:17:54.004Z,4.60
2019-05-12T00:18:58.781Z,4.83
2019-05-12T00:20:03.273Z,6.63
2019-05-12T00:21:08.845Z,6.47
2019-05-12T00:22:18.116Z,7.63
2019-05-12T00:23:27.730Z,5.37
2019-05-12T00:24:31.008Z,8.03
2019-05-12T00:25:38.680Z,4.23
2019-05-12T00:26:42.888Z,6.63
2019-05-12T00:27:48.533Z,6.57
2019-05-12T00:28:53.455Z,5.17
2019-05-12T00:29:58.237Z,5.03
2019-05-12T00:31:02.617Z,6.13
2019-05-12T00:32:08.564Z,9.53
2019-05-12T00:33:13.123Z,5.33
2019-05-12T00:34:18.553Z,5.63
2019-05-12T00:35:23.176Z,6.00
2019-05-12T00:36:29.308Z,5.60
2019-05-12T00:37:33.894Z,6.23
2019-05-12T00:38:38.915Z,8.23
2019-05-12T00:39:45.017Z,7.63
2019-05-12T00:40:49.789Z,4.53
2019-05-12T00:41:54.435Z,5.67
2019-05-12T00:42:59.213Z,7.97
2019-05-12T00:44:03.593Z,4.63
2019-05-12T00:45:08.508Z,6.40
2019-05-12T00:46:13.188Z,4.37
2019-05-12T00:47:18.776Z,4.53
2019-05-12T00:48:23.254Z,7.23
2019-05-12T00:49:28.970Z,6.43
2019-05-12T00:50:33.673Z,9.87
2019-05-12T00:51:38.627Z,8.37
2019-05-12T00:52:43.339Z,8.00
2019-05-12T00:53:48.312Z,6.70
2019-05-12T00:54:52.755Z,6.27
2019-05-12T00:55:57.949Z,8.97
2019-05-12T00:57:02.560Z,5.70
2019-05-12T00:58:08.239Z,6.37
2019-05-12T00:59:13.267Z,5.80
2019-05-12T01:00:18.345Z,5.53
2019-05-12T01:01:22.960Z,5.97
2019-05-12T01:02:28.634Z,6.53
2019-05-12T01:03:33.150Z,5.80
2019-05-12T01:04:38.236Z,7.83
2019-05-12T01:05:42.718Z,9.20
2019-05-12T01:06:48.616Z,7.93
2019-05-12T01:07:54.360Z,6.47
2019-05-12T01:09:00.221Z,4.57
2019-05-12T01:10:05.151Z,8.00
2019-05-12T01:11:10.049Z,6.50
2019-05-12T01:12:14.494Z,9.10
2019-05-12T01:13:19.333Z,4.83
2019-05-12T01:14:23.805Z,6.23
2019-05-12T01:15:29.055Z,7.87
2019-05-12T01:16:33.442Z,7.47
2019-05-12T01:17:40.378Z,6.10
2019-05-12T01:18:44.323Z,7.20
2019-05-12T01:19:49.040Z,4.53
2019-05-12T01:20:53.506Z,6.37
2019-05-12T01:21:58.793Z,7.57
2019-05-12T01:23:03.303Z,6.60
2019-05-12T01:24:09.040Z,5.50
2019-05-12T01:25:13.721Z,6.60
2019-05-12T01:26:18.430Z,5.37
2019-05-12T01:27:22.804Z,6.30
2019-05-12T01:28:27.950Z,6.90
2019-05-12T01:29:32.422Z,7.20
2019-05-12T01:30:39.006Z,6.73
2019-05-12T01:31:50.491Z,10.37
2019-05-12T01:32:57.453Z,6.27
2019-05-12T01:34:02.489Z,6.67
2019-05-12T01:35:10.240Z,8.10
2019-05-12T01:36:15.011Z,6.30
2019-05-12T01:37:27.836Z,7.37
2019-05-12T01:38:31.746Z,7.07
2019-05-12T01:39:38.325Z,7.20
2019-05-12T01:40:43.083Z,9.17
2019-05-12T01:41:48.837Z,8.67
2019-05-12T01:42:53.340Z,7.37
2019-05-12T01:44:00.044Z,6.10
2019-05-12T01:45:04.644Z,7.27
2019-05-12T01:46:09.530Z,6.87
2019-05-12T01:47:13.883Z,8.70
2019-05-12T01:48:18.657Z,7.37
2019-05-12T01:49:24.119Z,6.53
2019-05-12T01:50:28.978Z,8.47
2019-05-12T01:51:33.401Z,9.10
2019-05-12T01:52:38.646Z,6.80
2019-05-12T01:53:43.423Z,7.43
2019-05-12T01:54:48.448Z,10.93
2019-05-12T01:55:53.011Z,9.73
2019-05-12T01:56:58.647Z,7.77
2019-05-12T01:58:03.066Z,8.70
2019-05-12T01:59:09.810Z,9.03
2019-05-12T02:00:18.145Z,10.63
2019-05-12T02:01:22.566Z,8.83
2019-05-12T02:02:28.576Z,7.77
2019-05-12T02:03:33.697Z,7.87
2019-05-12T02:04:55.908Z,7.93
2019-05-12T02:06:01.276Z,8.63
2019-05-12T02:07:08.336Z,8.57
2019-05-12T02:08:18.568Z,9.93
2019-05-12T02:09:24.861Z,9.27
2019-05-12T02:10:29.200Z,9.30
2019-05-12T02:11:34.013Z,8.73
2019-05-12T02:12:38.561Z,8.90
2019-05-12T02:13:44.884Z,7.03
2019-05-12T02:14:49.248Z,9.53
2019-05-12T02:15:53.955Z,9.60
2019-05-12T02:16:58.456Z,7.63
2019-05-12T02:18:03.263Z,8.60
2019-05-12T02:19:09.063Z,9.90
2019-05-12T02:20:14.772Z,10.27
2019-05-12T02:21:19.195Z,10.67
2019-05-12T02:22:24.015Z,8.10
2019-05-12T02:23:28.901Z,10.43
2019-05-12T02:24:33.789Z,9.77
2019-05-12T02:25:39.208Z,9.00
2019-05-12T02:26:44.212Z,10.47
2019-05-12T02:27:48.694Z,11.60
2019-05-12T02:28:53.456Z,10.30
2019-05-12T02:29:58.583Z,10.67
2019-05-12T02:31:03.787Z,10.17
2019-05-12T02:32:08.331Z,7.67
2019-05-12T02:33:15.923Z,11.27
2019-05-12T02:34:19.672Z,8.33
2019-05-12T02:35:24.856Z,13.93
2019-05-12T02:36:33.980Z,9.93
2019-05-12T02:37:37.414Z,10.10
2019-05-12T02:38:45.075Z,8.10
2019-05-12T02:39:50.176Z,11.83
2019-05-12T02:40:55.439Z,10.87
2019-05-12T02:42:00.387Z,9.60
2019-05-12T02:43:06.088Z,9.83
2019-05-12T02:44:14.617Z,10.07
2019-05-12T02:45:18.051Z,10.37
2019-05-12T02:46:25.606Z,10.03
2019-05-12T02:47:28.962Z,10.80
2019-05-12T02:48:35.645Z,7.30
2019-05-12T02:49:41.024Z,10.27
2019-05-12T02:50:46.493Z,12.17
2019-05-12T02:51:50.932Z,10.07
2019-05-12T02:52:55.851Z,11.13
2019-05-12T02:54:00.247Z,9.90
2019-05-12T02:55:06.383Z,11.37
2019-05-12T02:56:15.162Z,11.50
2019-05-12T02:57:25.211Z,7.97
2019-05-12T02:58:29.551Z,9.60
2019-05-12T02:59:35.652Z,10.47
2019-05-12T03:00:41.081Z,11.23
2019-05-12T03:01:48.891Z,12.07
2019-05-12T03:02:54.709Z,11.37
2019-05-12T03:04:01.610Z,12.50
2019-05-12T03:05:07.336Z,9.30
2019-05-12T03:06:15.111Z,10.43
2019-05-12T03:07:20.870Z,10.83
2019-05-12T03:08:26.092Z,12.67
2019-05-12T03:09:35.151Z,12.33
2019-05-12T03:10:38.574Z,11.80
2019-05-12T03:11:44.828Z,10.37
2019-05-12T03:12:49.734Z,11.60
2019-05-12T03:13:54.819Z,11.93
2019-05-12T03:15:00.939Z,11.37
2019-05-12T03:16:07.116Z,12.17
2019-05-12T03:17:15.332Z,13.70
2019-05-12T03:18:21.025Z,13.80
2019-05-12T03:19:25.762Z,11.63
2019-05-12T03:20:30.164Z,12.73
2019-05-12T03:21:35.661Z,12.83
2019-05-12T03:22:40.528Z,16.40
2019-05-12T03:23:45.210Z,13.03
2019-05-12T03:25:06.450Z,14.00
2019-05-12T03:25:57.463Z,13.53
2019-05-12T03:27:04.378Z,13.90
2019-05-12T03:28:09.490Z,14.33
2019-05-12T03:29:15.022Z,15.47
2019-05-12T03:30:20.112Z,10.10
2019-05-12T03:31:31.129Z,12.43
2019-05-12T03:32:31.203Z,13.50
2019-05-12T03:33:42.744Z,13.43
2019-05-12T03:34:46.891Z,14.37
2019-05-12T03:35:53.178Z,10.90
2019-05-12T03:36:58.903Z,11.60
2019-05-12T03:38:04.385Z,10.50
2019-05-12T03:39:10.119Z,11.90
2019-05-12T03:40:15.348Z,12.03
2019-05-12T03:41:20.250Z,9.47
2019-05-12T03:42:25.261Z,10.97
2019-05-12T03:43:30.468Z,10.60
2019-05-12T03:44:35.335Z,13.27
2019-05-12T03:45:40.170Z,9.70
2019-05-12T03:46:45.533Z,14.80
2019-05-12T03:47:50.657Z,10.23
2019-05-12T03:48:56.385Z,8.83
2019-05-12T03:50:04.338Z,12.63
2019-05-12T03:51:07.161Z,8.70
2019-05-12T03:52:15.055Z,11.60
2019-05-12T03:53:18.467Z,10.00
2019-05-12T03:54:24.360Z,9.27
2019-05-12T03:55:36.122Z,10.90
2019-05-12T03:56:35.769Z,9.30
2019-05-12T03:57:40.179Z,10.87
2019-05-12T03:58:45.421Z,8.40
2019-05-12T03:59:49.895Z,8.57
2019-05-12T04:00:55.411Z,12.37
2019-05-12T04:02:00.352Z,10.63
2019-05-12T04:03:05.285Z,10.10
2019-05-12T04:04:10.068Z,11.00
2019-05-12T04:05:15.965Z,12.37
2019-05-12T04:06:20.395Z,9.50
2019-05-12T04:07:25.059Z,10.10
2019-05-12T04:08:29.557Z,10.87
2019-05-12T04:09:35.870Z,10.13
2019-05-12T04:10:40.334Z,11.40
2019-05-12T04:11:45.134Z,11.30
2019-05-12T04:12:49.575Z,11.00
2019-05-12T04:13:55.116Z,9.90
2019-05-12T04:14:59.677Z,10.63
2019-05-12T04:16:05.519Z,11.80
2019-05-12T04:17:14.765Z,8.20
2019-05-12T04:18:16.946Z,14.20
2019-05-12T04:19:40.313Z,8.00
2019-05-12T04:20:45.548Z,9.90
2019-05-12T04:21:49.902Z,9.40
2019-05-12T04:22:54.830Z,9.17
2019-05-12T04:23:59.199Z,8.50
2019-05-12T04:25:06.182Z,8.60
2019-05-12T04:26:13.376Z,7.77
2019-05-12T04:27:16.936Z,7.73
2019-05-12T04:28:24.364Z,10.93
2019-05-12T04:29:27.761Z,7.63
2019-05-12T04:30:35.150Z,11.43
2019-05-12T04:31:38.982Z,7.43
2019-05-12T04:32:45.143Z,11.00
2019-05-12T04:33:49.953Z,7.73
2019-05-12T04:34:55.073Z,7.80
2019-05-12T04:36:00.102Z,7.77
2019-05-12T04:37:04.678Z,8.83
2019-05-12T04:38:09.725Z,6.43
2019-05-12T04:39:14.855Z,6.50
2019-05-12T04:40:19.822Z,6.07
2019-05-12T04:41:26.052Z,6.30
2019-05-12T04:42:30.770Z,6.37
2019-05-12T04:43:35.530Z,7.03
2019-05-12T04:44:40.427Z,6.90
2019-05-12T04:45:45.565Z,5.73
2019-05-12T04:46:50.382Z,9.40
2019-05-12T04:47:55.311Z,7.30
2019-05-12T04:49:00.193Z,6.50
2019-05-12T04:50:05.766Z,6.63
2019-05-12T04:51:10.919Z,5.87
2019-05-12T04:52:16.186Z,7.13
2019-05-12T04:53:20.908Z,4.10
2019-05-12T04:54:25.441Z,3.93
2019-05-12T04:55:30.417Z,5.03
2019-05-12T04:56:36.043Z,4.35
2019-05-12T04:57:40.990Z,3.27
2019-05-12T04:58:45.692Z,4.12
2019-05-12T04:59:50.473Z,3.35
2019-05-12T05:00:55.074Z,3.10
2019-05-12T05:01:59.828Z,3.35
2019-05-12T05:03:05.236Z,4.12
2019-05-12T05:04:10.563Z,6.00
2019-05-12T05:05:15.404Z,3.70
2019-05-12T05:06:20.557Z,2.77
2019-05-12T05:07:25.059Z,2.72
2019-05-12T05:08:29.868Z,4.30
2019-05-12T05:09:35.136Z,2.62
2019-05-12T05:10:40.029Z,2.77
2019-05-12T05:11:45.276Z,4.30
2019-05-12T05:12:50.367Z,4.83
2019-05-12T05:13:55.118Z,2.77
2019-05-12T05:15:00.039Z,5.78
2019-05-12T05:16:05.382Z,3.35
2019-05-12T05:17:10.570Z,3.15
2019-05-12T05:18:15.394Z,4.20
2019-05-12T05:19:20.171Z,4.05
2019-05-12T05:20:24.804Z,3.52
2019-05-12T05:21:29.633Z,3.90
2019-05-12T05:22:34.144Z,2.80
2019-05-12T05:23:39.031Z,3.12
2019-05-12T05:24:44.410Z,4.00
2019-05-12T05:25:49.273Z,3.92
2019-05-12T05:26:54.245Z,4.53
2019-05-12T05:27:59.115Z,4.00
2019-05-12T05:29:04.454Z,2.98
2019-05-12T05:30:09.606Z,5.72
2019-05-12T05:31:16.117Z,7.97
2019-05-12T05:32:23.169Z,3.80
2019-05-12T05:33:27.454Z,3.27
2019-05-12T05:34:34.249Z,3.47
2019-05-12T05:35:39.958Z,3.92
2019-05-12T05:36:51.016Z,4.10
2019-05-12T05:37:59.308Z,5.00
2019-05-12T05:39:06.601Z,3.50
2019-05-12T05:40:13.889Z,3.85
2019-05-12T05:41:18.133Z,5.90
2019-05-12T05:42:30.724Z,3.27
2019-05-12T05:43:29.209Z,3.33
2019-05-12T05:44:37.737Z,3.60
2019-05-12T05:45:40.188Z,5.47
2019-05-12T05:46:49.991Z,2.87
2019-05-12T05:47:51.436Z,5.80
2019-05-12T05:48:56.239Z,4.00
2019-05-12T05:50:00.949Z,5.78
2019-05-12T05:51:08.922Z,2.80
2019-05-12T05:52:34.216Z,4.62
2019-05-12T05:53:37.555Z,4.55
2019-05-12T05:54:43.985Z,5.08
2019-05-12T05:55:50.332Z,5.25
2019-05-12T05:56:59.528Z,6.72
2019-05-12T05:58:07.841Z,4.25
2019-05-12T05:59:07.929Z,3.40
2019-05-12T06:00:22.573Z,4.45
2019-05-12T06:01:19.844Z,5.25
2019-05-12T06:02:31.397Z,4.05
2019-05-12T06:03:31.010Z,2.40
2019-05-12T06:04:39.031Z,2.20
2019-05-12T06:05:43.356Z,4.78
2019-05-12T06:06:50.914Z,3.70
2019-05-12T06:07:54.661Z,2.40
2019-05-12T06:09:00.365Z,4.40
2019-05-12T06:10:05.826Z,4.40
2019-05-12T06:11:14.716Z,3.62
2019-05-12T06:12:17.588Z,2.72
2019-05-12T06:13:29.952Z,3.92
2019-05-12T06:14:28.678Z,3.25
2019-05-12T06:15:38.817Z,3.25
2019-05-12T06:16:43.250Z,3.95
2019-05-12T06:17:47.488Z,3.33
2019-05-12T06:18:54.319Z,3.98
2019-05-12T06:19:58.508Z,3.15
2019-05-12T06:21:03.538Z,2.72
2019-05-12T06:22:09.119Z,3.50
2019-05-12T06:23:15.436Z,3.52
2019-05-12T06:24:23.910Z,3.75
2019-05-12T06:25:43.547Z,3.80
2019-05-12T06:26:35.816Z,5.28
2019-05-12T06:27:40.865Z,3.47
2019-05-12T06:28:45.555Z,2.77
2019-05-12T06:29:52.397Z,3.62
2019-05-12T06:30:58.334Z,2.15
2019-05-12T06:32:06.263Z,2.65
2019-05-12T06:33:09.508Z,3.25
2019-05-12T06:34:20.638Z,3.35
2019-05-12T06:35:20.966Z,2.55
2019-05-12T06:36:27.318Z,3.98
2019-05-12T06:37:33.869Z,4.17
2019-05-12T06:38:40.439Z,2.25
2019-05-12T06:39:45.335Z,3.47
2019-05-12T06:40:50.047Z,4.22
2019-05-12T06:41:57.076Z,4.08
2019-05-12T06:43:01.134Z,2.27
2019-05-12T06:44:08.814Z,3.47
2019-05-12T06:45:14.151Z,2.95
2019-05-12T06:46:21.160Z,4.15
2019-05-12T06:47:25.321Z,1.98
2019-05-12T06:48:30.343Z,2.15
2019-05-12T06:49:35.285Z,4.33
2019-05-12T06:50:40.727Z,5.50
2019-05-12T06:51:45.596Z,2.95
2019-05-12T06:52:50.240Z,2.65
2019-05-12T06:53:55.183Z,1.70
2019-05-12T06:54:59.814Z,2.80
2019-05-12T06:56:04.662Z,3.60
2019-05-12T06:57:21.404Z,2.35
2019-05-12T06:58:26.269Z,2.62
2019-05-12T06:59:23.775Z,2.80
2019-05-12T07:00:30.780Z,4.03
2019-05-12T07:01:35.400Z,1.82
2019-05-12T07:02:49.268Z,2.87
2019-05-12T07:03:47.056Z,4.83
2019-05-12T07:04:57.252Z,5.17
2019-05-12T07:05:58.227Z,2.05
2019-05-12T07:07:03.621Z,2.60
2019-05-12T07:08:08.298Z,2.37
2019-05-12T07:09:25.116Z,2.52
2019-05-12T07:10:38.526Z,4.53
2019-05-12T07:11:41.525Z,2.58
2019-05-12T07:12:43.487Z,1.60
2019-05-12T07:13:43.615Z,3.60
2019-05-12T07:14:48.987Z,3.30
2019-05-12T07:15:56.133Z,4.72
2019-05-12T07:17:06.215Z,3.05
2019-05-12T07:18:14.749Z,2.05
2019-05-12T07:19:22.743Z,4.12
2019-05-12T07:20:29.094Z,2.85
2019-05-12T07:21:33.515Z,2.17
2019-05-12T07:22:44.505Z,2.27
2019-05-12T07:23:44.743Z,3.05
2019-05-12T07:24:51.766Z,3.22
2019-05-12T07:25:56.066Z,4.30
2019-05-12T07:27:04.364Z,2.35
2019-05-12T07:28:08.264Z,2.20
2019-05-12T07:29:13.505Z,2.80
2019-05-12T07:30:27.208Z,6.17
2019-05-12T07:31:33.701Z,5.17
2019-05-12T07:32:38.372Z,2.33
2019-05-12T07:33:45.963Z,3.67
2019-05-12T07:34:49.530Z,2.20
2019-05-12T07:36:01.361Z,2.60
2019-05-12T07:37:04.224Z,2.60
2019-05-12T07:38:12.037Z,2.30
2019-05-12T07:39:17.638Z,2.02
2019-05-12T07:40:25.383Z,2.58
2019-05-12T07:41:34.028Z,2.30
2019-05-12T07:42:39.591Z,2.70
2019-05-12T07:43:50.633Z,2.35
2019-05-12T07:44:58.005Z,2.17
2019-05-12T07:46:07.038Z,2.30
2019-05-12T07:47:10.546Z,5.37
2019-05-12T07:48:15.310Z,2.65
2019-05-12T07:49:22.700Z,2.58
2019-05-12T07:50:27.373Z,3.45
2019-05-12T07:51:38.389Z,2.52
2019-05-12T07:52:38.814Z,3.90
2019-05-12T07:53:46.798Z,5.55
2019-05-12T07:54:52.941Z,3.27
2019-05-12T07:55:56.457Z,2.62
2019-05-12T07:57:03.804Z,1.72
2019-05-12T07:58:13.696Z,1.52
2019-05-12T07:59:13.926Z,2.37
2019-05-12T08:00:23.568Z,2.37
2019-05-12T08:01:25.070Z,2.65
2019-05-12T08:02:31.757Z,1.70
2019-05-12T08:03:37.566Z,2.17
2019-05-12T08:04:43.995Z,2.33
2019-05-12T08:05:51.440Z,2.50
2019-05-12T08:06:55.516Z,1.80
2019-05-12T08:08:00.614Z,2.02
2019-05-12T08:09:08.182Z,1.70
2019-05-12T08:10:20.066Z,2.15
2019-05-12T08:11:20.137Z,2.33
2019-05-12T08:12:24.982Z,2.33
2019-05-12T08:13:31.305Z,1.62
2019-05-12T08:14:36.281Z,1.45
2019-05-12T08:15:45.822Z,3.95
2019-05-12T08:16:47.564Z,2.40
2019-05-12T08:17:55.346Z,2.10
2019-05-12T08:18:59.096Z,2.60
2019-05-12T08:20:04.486Z,1.40
2019-05-12T08:21:09.433Z,1.85
2019-05-12T08:22:18.909Z,1.40
2019-05-12T08:23:23.264Z,1.95
2019-05-12T08:24:27.873Z,2.08
2019-05-12T08:25:34.287Z,2.40
2019-05-12T08:26:39.333Z,2.35
2019-05-12T08:27:45.122Z,1.72
2019-05-12T08:28:50.518Z,1.40
2019-05-12T08:30:01.198Z,2.03
2019-05-12T08:31:03.618Z,2.15
2019-05-12T08:32:09.856Z,1.40
2019-05-12T08:33:14.935Z,2.22
2019-05-12T08:34:19.730Z,2.62
2019-05-12T08:35:29.392Z,1.50
2019-05-12T08:36:33.069Z,1.80
2019-05-12T08:37:37.652Z,1.25
2019-05-12T08:38:44.362Z,1.22
2019-05-12T08:39:53.287Z,3.42
2019-05-12T08:40:55.037Z,1.12
2019-05-12T08:41:59.778Z,2.62
2019-05-12T08:43:08.173Z,2.50
2019-05-12T08:44:13.399Z,1.02
2019-05-12T08:45:27.381Z,2.45
2019-05-12T08:46:24.498Z,1.45
2019-05-12T08:47:35.543Z,1.92
2019-05-12T08:48:35.920Z,1.17
2019-05-12T08:49:49.985Z,2.42
2019-05-12T08:50:47.099Z,1.62
2019-05-12T08:51:55.762Z,1.60
2019-05-12T08:52:58.132Z,2.33
2019-05-12T08:54:07.845Z,4.12
2019-05-12T08:55:09.938Z,2.02
2019-05-12T08:56:19.346Z,1.90
2019-05-12T08:57:21.242Z,2.52
2019-05-12T08:58:33.524Z,2.90
2019-05-12T08:59:34.188Z,1.98
2019-05-12T09:00:46.558Z,1.82
2019-05-12T09:01:47.879Z,1.52
2019-05-12T09:02:53.924Z,3.12
2019-05-12T09:04:00.370Z,2.77
2019-05-12T09:05:05.361Z,2.27
2019-05-12T09:06:15.587Z,1.90
2019-05-12T09:07:19.814Z,2.42
2019-05-12T09:08:24.938Z,3.42
2019-05-12T09:09:29.718Z,3.05
2019-05-12T09:10:34.569Z,2.52
2019-05-12T09:11:39.473Z,2.08
2019-05-12T09:12:44.487Z,3.70
2019-05-12T09:13:52.783Z,3.87
2019-05-12T09:14:55.985Z,3.22
2019-05-12T09:16:00.800Z,6.40
2019-05-12T09:17:07.127Z,2.02
2019-05-12T09:18:14.351Z,2.10
2019-05-12T09:19:24.070Z,2.47
2019-05-12T09:20:25.934Z,1.98
2019-05-12T09:21:32.046Z,2.50
2019-05-12T09:22:37.219Z,4.08
2019-05-12T09:23:44.933Z,3.50
2019-05-12T09:24:48.755Z,2.17
2019-05-12T09:25:57.068Z,2.67
2019-05-12T09:27:06.996Z,2.05
2019-05-12T09:28:06.502Z,3.70
2019-05-12T09:29:13.967Z,3.60
2019-05-12T09:30:28.301Z,2.50
2019-05-12T09:31:33.802Z,1.37
2019-05-12T09:32:43.830Z,1.60
2019-05-12T09:33:47.122Z,2.70
2019-05-12T09:34:57.879Z,1.82
2019-05-12T09:35:58.835Z,2.90
2019-05-12T09:37:04.237Z,4.00
2019-05-12T09:38:11.437Z,4.67
2019-05-12T09:39:16.441Z,1.25
2019-05-12T09:40:22.814Z,3.80
2019-05-12T09:41:27.555Z,3.20
2019-05-12T09:42:33.447Z,5.80
2019-05-12T09:43:40.392Z,3.05
2019-05-12T09:44:44.854Z,1.37
2019-05-12T09:45:53.961Z,2.25
2019-05-12T09:46:55.997Z,3.35
2019-05-12T09:48:04.842Z,2.10
2019-05-12T09:49:07.342Z,2.77
2019-05-12T09:50:18.234Z,4.60
2019-05-12T09:51:19.804Z,1.60
2019-05-12T09:52:27.154Z,3.15
2019-05-12T09:53:30.912Z,1.22
2019-05-12T09:54:40.789Z,2.52
2019-05-12T09:55:43.809Z,1.57
2019-05-12T09:56:49.958Z,1.50
2019-05-12T09:57:55.711Z,3.85
2019-05-12T09:59:04.110Z,1.50
2019-05-12T10:00:07.825Z,1.52
2019-05-12T10:01:13.980Z,3.02
2019-05-12T10:02:20.945Z,2.02
2019-05-12T10:03:25.845Z,1.32
2019-05-12T10:04:30.527Z,2.27
2019-05-12T10:05:40.792Z,1.62
2019-05-12T10:06:44.435Z,2.60
2019-05-12T10:07:49.301Z,1.60
2019-05-12T10:08:54.890Z,1.70
2019-05-12T10:10:00.095Z,1.17
2019-05-12T10:11:05.062Z,1.05
2019-05-12T10:12:10.161Z,1.30
2019-05-12T10:13:15.353Z,1.42
2019-05-12T10:14:20.251Z,3.40
2019-05-12T10:15:28.657Z,2.60
2019-05-12T10:16:33.416Z,1.10
2019-05-12T10:17:38.122Z,2.62
2019-05-12T10:18:51.020Z,1.82
2019-05-12T10:19:54.187Z,3.05
2019-05-12T10:20:56.179Z,1.65
2019-05-12T10:22:00.727Z,1.50
2019-05-12T10:23:10.043Z,2.37
2019-05-12T10:24:12.064Z,1.37
2019-05-12T10:25:17.268Z,2.25
2019-05-12T10:26:21.940Z,1.92
2019-05-12T10:27:31.796Z,1.00
2019-05-12T10:28:33.133Z,2.35
2019-05-12T10:29:37.952Z,1.60
2019-05-12T10:30:47.057Z,1.20
2019-05-12T10:31:49.269Z,1.20
2019-05-12T10:32:54.066Z,1.65
2019-05-12T10:34:17.342Z,1.30
2019-05-12T10:35:24.544Z,3.15
2019-05-12T10:36:30.694Z,2.40
2019-05-12T10:37:35.630Z,1.00
2019-05-12T10:38:40.758Z,1.57
2019-05-12T10:39:46.108Z,1.25
2019-05-12T10:40:51.476Z,1.65
2019-05-12T10:41:56.018Z,1.02
2019-05-12T10:43:01.261Z,2.40
2019-05-12T10:44:06.114Z,2.17
2019-05-12T10:45:17.121Z,2.75
2019-05-12T10:46:18.318Z,2.52
2019-05-12T10:47:24.774Z,1.77
2019-05-12T10:48:29.548Z,2.08
2019-05-12T10:49:34.648Z,1.82
2019-05-12T10:50:39.135Z,1.80
2019-05-12T10:51:47.569Z,1.20
2019-05-12T10:52:53.768Z,1.35
2019-05-12T10:54:07.749Z,1.50
2019-05-12T10:55:05.717Z,1.12
2019-05-12T10:56:13.303Z,1.65
2019-05-12T10:57:17.214Z,1.30
2019-05-12T10:58:24.442Z,1.90
2019-05-12T10:59:33.133Z,2.52
2019-05-12T11:00:35.218Z,2.17
2019-05-12T11:01:47.140Z,2.55
2019-05-12T11:02:46.994Z,0.90
2019-05-12T11:03:52.279Z,1.27
2019-05-12T11:04:57.588Z,2.20
2019-05-12T11:06:04.933Z,2.27
2019-05-12T11:07:08.713Z,1.30
2019-05-12T11:08:14.469Z,0.98
2019-05-12T11:09:21.208Z,1.20
2019-05-12T11:10:25.927Z,1.65
2019-05-12T11:11:32.860Z,3.02
2019-05-12T11:12:37.110Z,1.67
2019-05-12T11:13:48.620Z,1.67
2019-05-12T11:14:48.951Z,0.98
2019-05-12T11:15:54.577Z,0.90
2019-05-12T11:17:02.024Z,1.80
2019-05-12T11:18:13.034Z,5.20
2019-05-12T11:19:17.574Z,1.10
2019-05-12T11:20:25.056Z,1.30
2019-05-12T11:21:29.389Z,1.42
2019-05-12T11:22:34.543Z,3.45
2019-05-12T11:23:39.038Z,0.80
2019-05-12T11:24:44.513Z,3.37
2019-05-12T11:25:49.234Z,1.80
2019-05-12T11:26:54.213Z,0.90
2019-05-12T11:27:58.921Z,1.45
2019-05-12T11:29:03.998Z,1.10
2019-05-12T11:30:08.427Z,3.22
2019-05-12T11:31:16.966Z,1.15
2019-05-12T11:32:23.228Z,2.52
2019-05-12T11:33:28.632Z,3.25
2019-05-12T11:34:45.839Z,4.08
2019-05-12T11:35:54.166Z,1.45
2019-05-12T11:36:58.395Z,1.00
2019-05-12T11:38:04.551Z,1.60
2019-05-12T11:39:09.279Z,1.27
2019-05-12T11:40:14.948Z,1.37
2019-05-12T11:41:20.345Z,4.25
2019-05-12T11:42:25.552Z,1.72
2019-05-12T11:43:30.254Z,2.05
2019-05-12T11:44:35.269Z,1.62
2019-05-12T11:45:39.744Z,1.32
2019-05-12T11:46:45.546Z,0.98
2019-05-12T11:47:50.077Z,1.60
2019-05-12T11:48:55.070Z,1.10
2019-05-12T11:50:05.033Z,1.50
2019-05-12T11:51:06.513Z,0.85
2019-05-12T11:52:18.331Z,1.62
2019-05-12T11:53:21.763Z,0.98
2019-05-12T11:54:26.311Z,0.82
2019-05-12T11:55:31.885Z,1.72
2019-05-12T11:56:40.247Z,1.32
2019-05-12T11:57:45.965Z,2.30
2019-05-12T11:58:53.656Z,0.78
2019-05-12T12:00:01.056Z,1.07
2019-05-12T12:01:08.279Z,0.85
2019-05-12T12:02:13.450Z,1.27
2019-05-12T12:03:18.479Z,1.40
2019-05-12T12:04:24.778Z,1.20
2019-05-12T12:05:29.244Z,1.20
2019-05-12T12:06:34.408Z,1.42
2019-05-12T12:07:47.838Z,2.87
2019-05-12T12:08:46.670Z,0.80
2019-05-12T12:09:58.013Z,1.60
2019-05-12T12:10:57.962Z,0.80
2019-05-12T12:12:07.124Z,1.15
2019-05-12T12:13:09.167Z,1.20
2019-05-12T12:14:14.481Z,1.10
2019-05-12T12:15:20.536Z,1.80
2019-05-12T12:16:26.896Z,1.20
2019-05-12T12:17:35.683Z,2.05
2019-05-12T12:18:39.515Z,1.05
2019-05-12T12:19:46.915Z,1.75
2019-05-12T12:20:57.127Z,1.17
2019-05-12T12:21:57.801Z,1.25
2019-05-12T12:23:08.766Z,1.20
2019-05-12T12:24:08.990Z,1.42
2019-05-12T12:25:15.751Z,1.57
2019-05-12T12:26:30.024Z,2.22
2019-05-12T12:27:31.930Z,1.12
2019-05-12T12:28:36.967Z,1.32
2019-05-12T12:29:43.717Z,1.05
2019-05-12T12:30:52.584Z,0.93
2019-05-12T12:31:55.343Z,1.27
2019-05-12T12:33:00.525Z,2.42
2019-05-12T12:34:05.294Z,0.95
2019-05-12T12:35:14.967Z,0.93
2019-05-12T12:36:20.837Z,1.50
2019-05-12T12:37:25.704Z,1.22
2019-05-12T12:38:30.303Z,1.55
2019-05-12T12:39:35.410Z,1.17
2019-05-12T12:40:39.916Z,0.80
2019-05-12T12:41:53.978Z,1.15
2019-05-12T12:42:53.708Z,1.35
2019-05-12T12:43:58.754Z,1.22
2019-05-12T12:45:16.570Z,1.57
2019-05-12T12:46:24.586Z,2.72
2019-05-12T12:47:29.138Z,1.67
2019-05-12T12:48:34.142Z,2.35
2019-05-12T12:49:39.956Z,2.08
2019-05-12T12:50:46.026Z,1.00
2019-05-12T12:51:50.675Z,1.02
2019-05-12T12:52:56.595Z,1.65
2019-05-12T12:54:03.159Z,1.47
2019-05-12T12:55:08.582Z,1.15
2019-05-12T12:56:18.080Z,1.47
2019-05-12T12:57:20.602Z,0.93
2019-05-12T12:58:31.111Z,1.15
2019-05-12T12:59:33.447Z,1.15
2019-05-12T13:00:47.309Z,0.70
2019-05-12T13:01:45.973Z,2.40
2019-05-12T13:02:50.695Z,0.90
2019-05-12T13:03:59.335Z,0.80
2019-05-12T13:05:02.395Z,2.10
2019-05-12T13:06:07.365Z,1.10
2019-05-12T13:07:13.731Z,2.98
2019-05-12T13:08:21.596Z,0.85
2019-05-12T13:09:35.268Z,1.75
2019-05-12T13:10:46.305Z,2.62
2019-05-12T13:11:47.018Z,0.93
2019-05-12T13:12:58.647Z,0.88
2019-05-12T13:13:58.290Z,1.02
2019-05-12T13:15:03.879Z,1.17
2019-05-12T13:16:08.516Z,1.87
2019-05-12T13:17:14.885Z,2.75
2019-05-12T13:18:27.586Z,2.08
2019-05-12T13:19:27.397Z,1.42
2019-05-12T13:20:34.377Z,1.67
2019-05-12T13:21:40.595Z,0.93
2019-05-12T13:22:45.259Z,1.70
2019-05-12T13:23:51.151Z,1.62
2019-05-12T13:24:58.101Z,1.02
2019-05-12T13:26:04.347Z,1.22
2019-05-12T13:27:09.400Z,2.20
2019-05-12T13:28:19.157Z,1.20
2019-05-12T13:29:28.285Z,1.67
2019-05-12T13:30:28.021Z,0.88
2019-05-12T13:31:33.291Z,0.80
2019-05-12T13:32:38.784Z,4.55
2019-05-12T13:33:44.228Z,1.37
2019-05-12T13:34:51.819Z,1.37
2019-05-12T13:35:57.509Z,1.35
2019-05-12T13:49:14.626Z,2.83
2019-05-12T13:50:26.327Z,1.00
2019-05-12T13:51:25.663Z,2.80
2019-05-12T13:52:33.110Z,2.72
2019-05-12T13:53:40.273Z,1.98
2019-05-12T13:54:43.791Z,0.80
2019-05-12T13:55:49.732Z,1.75
2019-05-12T13:56:55.003Z,0.65
2019-05-12T13:57:59.509Z,2.02
2019-05-12T15:05:19.017Z,1.95
2019-05-12T15:06:25.796Z,2.62
2019-05-12T15:07:30.346Z,1.55
2019-05-12T15:08:40.217Z,1.92
2019-05-12T15:09:42.694Z,0.90
2019-05-12T15:10:47.723Z,1.17
2019-05-12T15:11:53.481Z,1.42
2019-05-12T15:12:59.494Z,0.95
2019-05-12T15:14:03.929Z,2.12
2019-05-12T15:15:14.215Z,0.98
2019-05-12T15:16:15.661Z,1.77
2019-05-12T15:17:23.041Z,1.45
2019-05-12T15:18:26.645Z,1.95
2019-05-12T15:19:33.501Z,1.47
2019-05-12T15:20:41.595Z,2.25
2019-05-12T15:21:44.364Z,1.00
2019-05-12T15:22:51.779Z,1.72
2019-05-12T15:23:55.382Z,0.70
2019-05-12T15:25:02.686Z,5.00
2019-05-12T15:26:09.506Z,2.95
2019-05-12T15:27:13.484Z,0.93
2019-05-12T15:28:18.568Z,2.67
2019-05-12T15:29:23.447Z,1.30
2019-05-12T15:30:28.583Z,1.75
2019-05-12T15:31:33.760Z,1.12
2019-05-12T15:32:38.999Z,0.80
2019-05-12T15:33:44.068Z,0.88
2019-05-12T15:34:49.209Z,2.55
2019-05-12T15:35:54.676Z,2.35
2019-05-12T15:37:00.323Z,1.50
2019-05-12T15:38:09.564Z,1.90
2019-05-12T15:39:13.945Z,0.98
2019-05-12T15:40:18.471Z,1.80
2019-05-12T15:41:23.886Z,1.25
2019-05-12T15:42:28.506Z,1.02
2019-05-12T15:43:37.862Z,1.25
2019-05-12T15:44:39.888Z,0.88
2019-05-12T15:45:49.084Z,1.67
2019-05-12T15:46:53.530Z,0.70
2019-05-12T15:47:58.053Z,2.08
2019-05-12T15:49:03.395Z,2.20
2019-05-12T15:50:09.137Z,1.27
2019-05-12T15:51:14.066Z,1.30